Detall de PIREP

Printer-friendly versionPDF version

[2014/06/07 22:07:00]
Flight IATA:CT1063
Pilot Number:026
Company ICAO:CAT
Aircraft Type:DC85/A
PAX:132
Aircraft Registration:PAX
Departing Airport: LTBA
Destination Airport: LGAV
Alternate Airport:LGTS
Online: VATSIM
Route:BIG UN604 KEPIR
Flight Level:F310
No Slew and time accel
No pause
Crash detect
Detect pilot in Cockpit between each 30 and 45 minutes
22:07 Zero fuel Weight: 179322 Lbs, Fuel Weight: 30002 Lbs
22:07 VATSIM:LTBA 072150Z 34006KT 9999 FEW013 SCT030 BKN090 20/17 Q1012 NOSIG
22:07 VATSIM:LGAV 072150Z 24004KT 9999 FEW025 20/12 Q1013 NOSIG
22:08 ALMOGAVERS ROUTE
22:08 Parking Brakes off
22:26 Take-off
22:26 Take off Weight: 208039 Lbs
22:26 Wind: 336º @ 006 Knots Heading: 358º
22:26 POS N40º 59´ 17´´ E028º 48´ 31´´
22:26 Flaps:2 at 173 Knots
22:26 Gear Up: 177 Knots
22:27 Flaps:1 at 176 Knots
22:27 Flaps:0 at 192 Knots
22:41 Wind:339º@023 Knots Heading: 207º Ground Speed: 402 Knots Altitude 27250 ft
22:44 TOC
22:44 Fuel Weight: 23689 Lb
22:56 Wind:310º@012 Knots Heading: 238º Ground Speed: 446 Knots Altitude 30954 ft
22:58 TOD
22:58 Fuel Weight: 21028 Lb
23:08 Flaps:5 at 312 Knots
23:08 Flaps:3 at 307 Knots
23:08 Flaps:1 at 306 Knots
23:08 Flaps:0 at 304 Knots
23:11 Wind:304º@010 Knots Heading: 206º Ground Speed: 370 Knots Altitude 14419 ft
23:24 Flaps:1 at 137 Knots
23:25 Gear Down: 170 Knots
23:25 Flaps:2 at 174 Knots
23:25 Flaps:3 at 160 Knots
23:26 Wind:289º@005 Knots Heading: 035º Ground Speed: 165 Knots Altitude 2247 ft
23:26 Flaps:4 at 143 Knots
23:27 Flaps:5 at 138 Knots
23:28 TouchDown:Rate -206 ft/min Speed: 118 Knots
23:28 VATSIM:LGAV 072250Z 29005KT 9999 FEW025 18/12 Q1013 NOSIG
23:28 Land
23:28 Wind:288º@005 Knots
23:28 Heading: 034º
23:28 Flight Duration: 01:02
23:28 Landing Weight: 196704 Lbs
23:28 POS N37º 56´ 13´´ E023º 57´ 22´´
23:37 Parking brakes on
23:37 Block to Block Duration: 01:29
23:37 Final Fuel: 16812 Lbls
23:37 Spent Fuel: 13190 Lbls
23:37 Flight Length: 369 NM
23:37 TOD Land Length: 158 NM

Exportar CSV

Powered by Drupal - Modified by Danger4k